Time;durP1;ratioP1;P1;durP2;ratioP2;P2;SDS_P1;SDS_P2;PMS_P1;PMS_P2;Temp;Humidity;BMP_temperature;BMP_pressure;BME280_temperature;BME280_humidity;BME280_pressure;Samples;Min_cycle;Max_cycle;Signal;HPM_P1;HPM_P2
2022/10/21 00:01:37;;;;;;;12.23;5.43;;;22.10;63.00;;;;;;4954540;28;20113;-74
2022/10/21 00:04:03;;;;;;;9.70;4.82;;;22.10;62.50;;;;;;4983050;28;20031;-74
2022/10/21 00:06:29;;;;;;;12.73;5.18;;;22.10;62.50;;;;;;4952886;28;20081;-74
2022/10/21 00:08:55;;;;;;;11.45;5.05;;;22.10;62.50;;;;;;4973493;28;20883;-74
2022/10/21 00:11:21;;;;;;;10.40;4.72;;;22.20;62.70;;;;;;4982291;28;20027;-74
2022/10/21 00:13:46;;;;;;;12.00;4.68;;;22.10;62.60;;;;;;4968908;28;20034;-73
2022/10/21 00:16:14;;;;;;;11.73;4.57;;;22.10;62.60;;;;;;4986252;28;20026;-73
2022/10/21 00:18:42;;;;;;;11.98;4.32;;;22.10;62.60;;;;;;4969843;28;20442;-73
2022/10/21 00:21:15;;;;;;;15.50;4.93;;;22.10;62.70;;;;;;4973313;28;20059;-73
2022/10/21 00:23:42;;;;;;;9.40;4.80;;;22.10;62.80;;;;;;4968853;28;20042;-73
2022/10/21 00:26:08;;;;;;;10.10;4.75;;;22.10;62.80;;;;;;4989115;28;20027;-74
2022/10/21 00:28:34;;;;;;;8.82;4.43;;;22.10;62.90;;;;;;4964530;28;20034;-74
2022/10/21 00:31:01;;;;;;;10.18;4.90;;;22.10;62.70;;;;;;4989571;28;20034;-74
2022/10/21 00:33:27;;;;;;;11.38;4.90;;;22.10;62.60;;;;;;4980619;28;20038;-73
2022/10/21 00:35:56;;;;;;;11.35;4.65;;;22.10;62.80;;;;;;4988302;28;20042;-73
2022/10/21 00:38:22;;;;;;;9.93;4.75;;;22.10;63.40;;;;;;4963727;28;20046;-73
2022/10/21 00:40:48;;;;;;;10.75;4.60;;;22.20;63.00;;;;;;4986659;28;20026;-74
2022/10/21 00:43:14;;;;;;;22.77;15.73;;;22.20;63.40;;;;;;4969245;28;20030;-69
2022/10/21 00:45:42;;;;;;;32.20;21.08;;;22.20;62.90;;;;;;4970426;28;20600;-76
2022/10/21 00:48:49;;;;;;;37.17;21.88;;;22.10;57.60;;;;;;4973214;28;20032;-73
2022/10/21 00:51:17;;;;;;;32.60;16.45;;;22.00;58.00;;;;;;4960463;28;20046;-73
2022/10/21 00:53:46;;;;;;;25.33;13.93;;;22.00;58.90;;;;;;4983659;28;20600;-73
2022/10/21 00:56:16;;;;;;;24.15;13.88;;;22.00;59.70;;;;;;4956064;28;20392;-72
2022/10/21 00:58:45;;;;;;;29.02;14.73;;;22.00;60.10;;;;;;4983678;28;20077;-73
2022/10/21 01:01:11;;;;;;;25.30;14.18;;;22.00;60.10;;;;;;4989786;28;20057;-72
2022/10/21 01:03:36;;;;;;;25.27;13.57;;;22.10;60.50;;;;;;4970694;28;20104;-74
2022/10/21 01:06:06;;;;;;;21.80;13.25;;;22.00;60.80;;;;;;4990448;28;20025;-72
2022/10/21 01:08:33;;;;;;;;;;;22.00;60.90;;;;;;4988106;28;20026;-72
2022/10/21 01:10:59;;;;;;;23.60;13.20;;;22.00;61.00;;;;;;4989347;28;19910;-72
2022/10/21 01:13:56;;;;;;;27.38;12.13;;;22.00;61.10;;;;;;4984190;28;20491;-73
2022/10/21 01:17:01;;;;;;;24.77;12.30;;;22.10;61.30;;;;;;4973756;28;20510;-73
2022/10/21 01:20:06;;;;;;;19.27;11.70;;;22.10;61.40;;;;;;4980331;28;20039;-73
2022/10/21 01:23:18;;;;;;;23.23;13.02;;;22.00;61.40;;;;;;4985866;28;20055;-73
2022/10/21 01:25:56;;;;;;;21.33;12.65;;;22.00;61.60;;;;;;4986803;28;20030;-73
2022/10/21 01:28:40;;;;;;;22.73;12.20;;;22.00;61.50;;;;;;4990654;28;20026;-73
2022/10/21 01:31:38;;;;;;;22.35;12.35;;;22.00;61.50;;;;;;4972529;28;20057;-73
2022/10/21 01:34:08;;;;;;;22.17;12.25;;;22.00;61.60;;;;;;4976815;28;20323;-73
2022/10/21 01:36:56;;;;;;;28.65;12.23;;;22.00;61.70;;;;;;4982626;28;20037;-73
2022/10/21 01:39:37;;;;;;;23.70;11.38;;;22.00;61.90;;;;;;4985632;28;20034;-73
2022/10/21 01:42:12;;;;;;;22.48;11.82;;;22.00;61.80;;;;;;4973231;28;20147;-73
2022/10/21 01:45:01;;;;;;;22.60;11.43;;;22.00;61.70;;;;;;4965779;28;20113;-73
2022/10/21 01:47:35;;;;;;;21.02;11.27;;;22.00;61.70;;;;;;4972460;28;20034;-73
2022/10/21 01:50:18;;;;;;;20.02;11.77;;;22.00;61.90;;;;;;4983705;28;20069;-72
2022/10/21 01:52:47;;;;;;;19.38;11.27;;;22.00;61.90;;;;;;4974059;28;20100;-72
2022/10/21 01:55:19;;;;;;;20.13;11.40;;;22.10;61.90;;;;;;4986433;28;20435;-72
2022/10/21 01:57:51;;;;;;;19.52;10.98;;;22.10;62.10;;;;;;4991803;28;20120;-72
2022/10/21 02:00:16;;;;;;;16.88;10.55;;;22.10;61.90;;;;;;4986059;28;20036;-72
2022/10/21 02:02:46;;;;;;;18.80;11.40;;;22.00;62.10;;;;;;4960186;28;20084;-72
2022/10/21 02:05:14;;;;;;;;;;;22.10;62.20;;;;;;4993707;28;20116;-72
2022/10/21 02:07:40;;;;;;;20.35;10.52;;;22.00;62.30;;;;;;4991398;28;19909;-72
2022/10/21 02:10:07;;;;;;;20.05;10.60;;;22.00;62.20;;;;;;4959400;28;20404;-73
2022/10/21 02:12:35;;;;;;;17.45;10.52;;;22.00;62.20;;;;;;4973295;28;20034;-73
2022/10/21 02:15:05;;;;;;;17.77;10.68;;;22.00;62.40;;;;;;4949152;28;20038;-72
2022/10/21 02:17:34;;;;;;;17.38;10.75;;;22.00;62.70;;;;;;4995041;28;20552;-73
2022/10/21 02:20:03;;;;;;;18.02;11.07;;;22.00;62.60;;;;;;4978192;28;20031;-73
2022/10/21 02:22:31;;;;;;;19.57;10.10;;;22.10;62.60;;;;;;4977601;28;20403;-72
2022/10/21 02:25:07;;;;;;;17.70;10.25;;;22.00;62.50;;;;;;4977339;28;20027;-73
2022/10/21 02:27:33;;;;;;;18.38;10.60;;;22.00;62.50;;;;;;4977127;28;20392;-73
2022/10/21 02:30:00;;;;;;;20.20;10.80;;;22.00;62.60;;;;;;4992994;28;20023;-73
2022/10/21 02:32:46;;;;;;;18.30;9.98;;;22.10;62.50;;;;;;4975961;28;20053;-72
2022/10/21 02:35:37;;;;;;;17.20;10.38;;;22.00;62.70;;;;;;4983758;28;20030;-73
2022/10/21 02:38:20;;;;;;;16.30;9.77;;;22.00;62.80;;;;;;4975194;28;20038;-73
2022/10/21 02:40:55;;;;;;;19.67;9.82;;;22.00;62.90;;;;;;4993352;28;20466;-73
2022/10/21 02:43:27;;;;;;;15.90;9.35;;;22.00;62.90;;;;;;4986558;28;20038;-73
2022/10/21 02:46:00;;;;;;;16.50;9.80;;;22.00;62.80;;;;;;4976872;28;20454;-73
2022/10/21 02:48:26;;;;;;;19.58;10.45;;;22.00;62.90;;;;;;4984941;28;20500;-73
2022/10/21 02:50:52;;;;;;;17.98;9.95;;;22.00;63.00;;;;;;4974903;28;20106;-73
2022/10/21 02:53:18;;;;;;;16.17;9.75;;;22.00;63.30;;;;;;4974510;28;20532;-73
2022/10/21 02:55:44;;;;;;;16.63;10.05;;;22.00;63.10;;;;;;4974927;28;20039;-73
2022/10/21 02:58:09;;;;;;;18.65;10.40;;;22.00;62.80;;;;;;4990511;28;20526;-73
2022/10/21 03:00:35;;;;;;;15.30;9.48;;;22.00;62.80;;;;;;4993065;28;20130;-73
2022/10/21 03:03:01;;;;;;;16.08;9.02;;;22.00;62.80;;;;;;4976204;28;20465;-73
2022/10/21 03:05:27;;;;;;;16.35;9.75;;;22.00;62.80;;;;;;4976658;28;20062;-73
2022/10/21 03:07:52;;;;;;;17.88;9.43;;;22.00;62.80;;;;;;4976745;28;20030;-72
2022/10/21 03:10:18;;;;;;;17.98;9.70;;;22.00;62.70;;;;;;4976678;28;20117;-72
2022/10/21 03:12:44;;;;;;;18.08;10.35;;;22.10;62.70;;;;;;4993730;28;20058;-72
2022/10/21 03:15:10;;;;;;;16.63;10.02;;;22.10;62.80;;;;;;4993759;28;20512;-72
2022/10/21 03:17:36;;;;;;;16.40;9.90;;;22.00;62.80;;;;;;4993710;28;20030;-72
2022/10/21 03:20:02;;;;;;;16.38;9.02;;;22.10;63.00;;;;;;4993653;28;20027;-72
2022/10/21 03:22:27;;;;;;;16.02;9.15;;;22.00;63.10;;;;;;4944154;28;20057;-72
2022/10/21 03:24:53;;;;;;;16.70;9.05;;;22.00;62.70;;;;;;4993749;28;20038;-73
2022/10/21 03:27:19;;;;;;;15.60;9.20;;;22.00;63.00;;;;;;4993692;28;20664;-72
2022/10/21 03:29:45;;;;;;;15.48;9.23;;;22.10;63.10;;;;;;4993576;28;20042;-72
2022/10/21 03:32:11;;;;;;;15.77;8.85;;;22.10;63.20;;;;;;4975752;28;20031;-72
2022/10/21 03:34:36;;;;;;;15.07;8.93;;;22.10;62.90;;;;;;4993342;28;20104;-72
2022/10/21 03:37:02;;;;;;;13.52;8.77;;;22.00;63.20;;;;;;4975817;28;20030;-72
2022/10/21 03:39:30;;;;;;;17.02;9.02;;;22.00;63.40;;;;;;4975970;28;20045;-73
2022/10/21 03:41:56;;;;;;;16.48;9.32;;;22.00;63.50;;;;;;4975608;28;20116;-72
2022/10/21 03:44:22;;;;;;;13.80;8.60;;;22.00;63.40;;;;;;4992206;28;20189;-73
2022/10/21 03:46:49;;;;;;;15.63;8.75;;;22.00;63.50;;;;;;4988452;28;20023;-73
2022/10/21 03:49:15;;;;;;;15.25;8.07;;;22.00;63.30;;;;;;4986492;28;20655;-73
2022/10/21 03:51:41;;;;;;;14.50;8.38;;;22.00;63.20;;;;;;4990115;28;20496;-73
2022/10/21 03:54:06;;;;;;;16.65;8.82;;;22.00;63.20;;;;;;4967528;28;20038;-73
2022/10/21 03:56:32;;;;;;;13.50;8.18;;;22.00;63.20;;;;;;4973633;28;20034;-73
2022/10/21 03:58:58;;;;;;;13.48;8.38;;;22.00;63.10;;;;;;4974798;28;20049;-73
2022/10/21 04:01:24;;;;;;;13.13;8.15;;;22.00;63.20;;;;;;4977473;28;20034;-73
2022/10/21 04:03:50;;;;;;;17.50;8.13;;;22.00;63.00;;;;;;4982693;28;20030;-73
2022/10/21 04:06:16;;;;;;;13.60;8.45;;;22.00;63.40;;;;;;4984700;28;20097;-73
2022/10/21 04:08:41;;;;;;;16.40;8.82;;;22.00;63.90;;;;;;4968369;28;20058;-73
2022/10/21 04:11:07;;;;;;;16.58;8.55;;;22.00;63.50;;;;;;4989046;28;20042;-73
2022/10/21 04:13:33;;;;;;;16.98;8.95;;;22.00;63.30;;;;;;4989084;28;20019;-73
2022/10/21 04:16:01;;;;;;;17.55;7.80;;;22.00;63.60;;;;;;4973209;28;20397;-73
2022/10/21 04:18:27;;;;;;;15.25;8.38;;;22.00;63.50;;;;;;4973065;28;20031;-73
2022/10/21 04:20:53;;;;;;;13.35;7.60;;;22.00;63.90;;;;;;4987236;28;20026;-73
2022/10/21 04:23:19;;;;;;;13.73;8.43;;;22.00;63.50;;;;;;4968270;28;20039;-73
2022/10/21 04:25:45;;;;;;;15.77;7.88;;;22.00;63.60;;;;;;4967059;28;20030;-73
2022/10/21 04:28:11;;;;;;;14.45;7.80;;;22.00;63.50;;;;;;4990476;28;20030;-73
2022/10/21 04:30:37;;;;;;;13.45;7.80;;;22.00;64.00;;;;;;4973569;28;20035;-73
2022/10/21 04:33:03;;;;;;;12.10;7.35;;;22.00;63.20;;;;;;4987254;28;20080;-72
2022/10/21 04:35:29;;;;;;;13.32;7.30;;;22.00;63.40;;;;;;4983635;28;20448;-73
2022/10/21 04:37:55;;;;;;;13.57;7.85;;;22.10;63.30;;;;;;4991083;28;20620;-72
2022/10/21 04:40:21;;;;;;;14.10;7.40;;;22.00;63.20;;;;;;4988057;28;20034;-73
2022/10/21 04:42:48;;;;;;;13.90;7.57;;;22.10;63.40;;;;;;4970227;28;20026;-73
2022/10/21 04:45:15;;;;;;;24.88;7.65;;;22.00;63.50;;;;;;4983962;28;20041;-73
2022/10/21 04:47:40;;;;;;;13.70;8.00;;;22.00;63.40;;;;;;4989659;28;20026;-72
2022/10/21 04:50:07;;;;;;;11.93;7.18;;;22.00;63.60;;;;;;4987402;28;20373;-73
2022/10/21 04:52:33;;;;;;;16.02;7.70;;;22.00;63.30;;;;;;4990997;28;20427;-72
2022/10/21 04:54:58;;;;;;;12.63;7.68;;;22.00;64.00;;;;;;4966584;28;20077;-71
2022/10/21 04:57:24;;;;;;;13.32;7.28;;;22.00;63.80;;;;;;4970394;28;20030;-72
2022/10/21 04:59:50;;;;;;;13.18;7.18;;;22.00;63.70;;;;;;4973278;28;20030;-71
2022/10/21 05:02:16;;;;;;;18.02;7.80;;;22.00;63.60;;;;;;4984349;28;20301;-72
2022/10/21 05:04:42;;;;;;;13.40;8.05;;;22.00;63.70;;;;;;4976251;28;20555;-73
2022/10/21 05:07:08;;;;;;;14.50;7.40;;;22.00;63.50;;;;;;4965123;28;20502;-73
2022/10/21 05:09:34;;;;;;;20.50;8.32;;;22.00;63.70;;;;;;4989619;28;20022;-73
2022/10/21 05:11:59;;;;;;;20.42;7.95;;;22.00;64.20;;;;;;4971077;28;20034;-73
2022/10/21 05:14:25;;;;;;;17.88;8.32;;;22.00;63.80;;;;;;4989947;28;20087;-73
2022/10/21 05:16:51;;;;;;;18.20;7.78;;;22.00;64.10;;;;;;4983109;28;20438;-73
2022/10/21 05:19:18;;;;;;;14.98;7.32;;;22.00;64.00;;;;;;4984516;28;20055;-73
2022/10/21 05:21:45;;;;;;;14.18;7.20;;;21.90;64.20;;;;;;4971704;28;20073;-73
2022/10/21 05:24:11;;;;;;;16.17;7.32;;;22.00;63.80;;;;;;4987700;28;20035;-72
2022/10/21 05:26:37;;;;;;;15.82;7.38;;;21.90;64.20;;;;;;4989816;28;20041;-73
2022/10/21 05:29:03;;;;;;;15.40;7.38;;;22.00;64.20;;;;;;4977988;28;20113;-73
2022/10/21 05:31:28;;;;;;;12.73;8.15;;;22.00;64.00;;;;;;4993801;28;20030;-73
2022/10/21 05:33:54;;;;;;;15.52;7.82;;;21.90;63.80;;;;;;4972468;28;20023;-73
2022/10/21 05:36:20;;;;;;;17.40;7.63;;;22.00;64.00;;;;;;4989573;28;20034;-73
2022/10/21 05:38:46;;;;;;;17.08;7.00;;;21.90;64.00;;;;;;5031579;22;20049;-70
2022/10/21 05:41:11;;;;;;;12.68;7.32;;;22.00;63.70;;;;;;5034135;28;20521;-72
2022/10/21 05:43:37;;;;;;;16.02;7.00;;;21.90;63.60;;;;;;5025291;28;20033;-72
2022/10/21 05:46:04;;;;;;;13.18;7.18;;;21.90;63.60;;;;;;5016621;28;20084;-72
2022/10/21 05:48:30;;;;;;;14.10;6.20;;;22.00;63.80;;;;;;4988761;28;20029;-71
2022/10/21 05:50:56;;;;;;;12.80;7.15;;;22.00;63.70;;;;;;5003105;28;20433;-72
2022/10/21 05:53:22;;;;;;;11.93;6.68;;;22.00;63.70;;;;;;4996888;28;20026;-72
2022/10/21 05:56:00;;;;;;;15.23;7.20;;;22.00;63.90;;;;;;5004853;28;20091;-72
2022/10/21 05:58:27;;;;;;;11.55;6.75;;;22.00;63.70;;;;;;5006693;28;20045;-71
2022/10/21 06:00:54;;;;;;;14.70;7.10;;;22.00;63.70;;;;;;4996521;28;20081;-72
2022/10/21 06:03:24;;;;;;;14.35;7.28;;;22.00;63.70;;;;;;4975474;28;20439;-72
2022/10/21 06:05:50;;;;;;;11.88;6.50;;;21.90;63.70;;;;;;4974677;28;20026;-71
2022/10/21 06:08:17;;;;;;;12.07;6.90;;;21.90;63.80;;;;;;5011424;28;20103;-72
2022/10/21 06:10:43;;;;;;;14.30;7.10;;;22.00;63.80;;;;;;4987877;28;20022;-72
2022/10/21 06:13:09;;;;;;;10.73;6.60;;;21.90;63.90;;;;;;4996428;28;20030;-72
2022/10/21 06:15:36;;;;;;;13.77;6.25;;;21.90;63.80;;;;;;4995269;28;20036;-72
2022/10/21 06:18:02;;;;;;;11.63;6.25;;;22.00;64.10;;;;;;4995302;28;20022;-71
2022/10/21 06:20:28;;;;;;;13.23;6.40;;;22.00;64.20;;;;;;4996742;28;20065;-72
2022/10/21 06:22:53;;;;;;;12.95;7.38;;;21.90;64.10;;;;;;5005396;28;20046;-72
2022/10/21 06:25:20;;;;;;;11.80;6.90;;;21.90;64.20;;;;;;5005768;28;20041;-72
2022/10/21 06:27:46;;;;;;;16.38;7.35;;;21.90;63.70;;;;;;4995455;28;20030;-72
2022/10/21 06:30:12;;;;;;;11.60;6.40;;;22.00;64.20;;;;;;5004305;28;20064;-72
2022/10/21 06:32:37;;;;;;;15.68;6.43;;;21.90;63.90;;;;;;5015737;28;20026;-71
2022/10/21 06:35:03;;;;;;;14.73;6.47;;;21.90;64.10;;;;;;5008084;28;20401;-72
2022/10/21 06:37:29;;;;;;;17.20;6.55;;;21.90;64.10;;;;;;5012731;28;20120;-72
2022/10/21 06:39:55;;;;;;;13.13;6.53;;;22.00;64.40;;;;;;5011248;28;20491;-72
2022/10/21 06:42:20;;;;;;;11.80;6.38;;;21.90;64.40;;;;;;5012043;28;20037;-73
2022/10/21 06:44:46;;;;;;;11.80;6.90;;;21.90;64.20;;;;;;5013409;28;20076;-71
2022/10/21 06:47:12;;;;;;;14.25;7.00;;;21.90;64.30;;;;;;5013583;28;20377;-73
2022/10/21 06:49:38;;;;;;;15.23;6.53;;;21.90;64.30;;;;;;5008797;28;20058;-72
2022/10/21 06:52:04;;;;;;;14.18;6.70;;;21.90;64.50;;;;;;5006336;28;20030;-72
2022/10/21 06:54:30;;;;;;;12.38;6.90;;;21.90;64.70;;;;;;4988377;28;20042;-71
2022/10/21 06:56:56;;;;;;;13.18;6.63;;;21.90;64.40;;;;;;5000997;28;20025;-72
2022/10/21 06:59:21;;;;;;;13.55;6.10;;;21.90;64.20;;;;;;5008677;28;20033;-72
2022/10/21 07:01:47;;;;;;;13.27;6.72;;;21.90;64.10;;;;;;4990355;28;20123;-71
2022/10/21 07:04:13;;;;;;;11.55;6.20;;;21.90;64.40;;;;;;5013026;28;20032;-72
2022/10/21 07:06:38;;;;;;;11.88;6.68;;;22.00;64.40;;;;;;4994397;28;20030;-72
2022/10/21 07:09:06;;;;;;;13.02;6.60;;;22.00;64.30;;;;;;5006020;28;20117;-72
2022/10/21 07:11:31;;;;;;;11.85;5.68;;;22.00;64.20;;;;;;4991064;28;20403;-73
2022/10/21 07:13:59;;;;;;;10.45;6.47;;;21.90;64.10;;;;;;5012763;28;20123;-72
2022/10/21 07:16:31;;;;;;;9.90;5.35;;;21.90;64.10;;;;;;5012381;28;20030;-72
2022/10/21 07:18:56;;;;;;;10.65;6.18;;;22.00;64.00;;;;;;4995519;28;20037;-72
2022/10/21 07:21:25;;;;;;;10.23;5.82;;;21.90;64.00;;;;;;5004388;28;20391;-72
2022/10/21 07:23:52;;;;;;;10.70;6.03;;;21.90;64.10;;;;;;4999301;28;20212;-72
2022/10/21 07:26:22;;;;;;;12.85;6.03;;;21.90;64.30;;;;;;5008066;28;20026;-72
2022/10/21 07:28:48;;;;;;;10.95;6.10;;;21.90;64.10;;;;;;4994976;28;20046;-73
2022/10/21 07:31:15;;;;;;;10.65;5.78;;;21.90;64.70;;;;;;5006927;28;20022;-72
2022/10/21 07:33:41;;;;;;;14.07;6.38;;;21.90;64.50;;;;;;4992994;28;20030;-72
2022/10/21 07:36:13;;;;;;;14.50;5.85;;;21.90;64.60;;;;;;4995338;28;20092;-72
2022/10/21 07:38:40;;;;;;;11.23;6.38;;;21.90;64.50;;;;;;5004053;28;20037;-72
2022/10/21 07:41:05;;;;;;;16.17;6.25;;;21.90;64.30;;;;;;4976586;28;20404;-72
2022/10/21 07:43:32;;;;;;;12.88;6.25;;;21.90;64.60;;;;;;4994724;28;20026;-72
2022/10/21 07:45:58;;;;;;;15.52;5.85;;;21.90;64.80;;;;;;4991730;28;20033;-73
2022/10/21 07:48:25;;;;;;;11.63;6.32;;;21.90;64.70;;;;;;4994973;28;20034;-72
2022/10/21 07:50:51;;;;;;;13.02;6.53;;;21.90;64.70;;;;;;5010701;28;20061;-72
2022/10/21 07:53:17;;;;;;;11.20;5.80;;;21.90;65.10;;;;;;5007004;28;20025;-73
2022/10/21 07:55:43;;;;;;;12.35;5.90;;;21.90;64.30;;;;;;5005061;28;20049;-72
2022/10/21 07:58:09;;;;;;;10.75;6.20;;;21.90;64.40;;;;;;4993943;28;20492;-72
2022/10/21 08:00:35;;;;;;;14.05;6.28;;;21.90;64.30;;;;;;4994368;28;20557;-72
2022/10/21 08:03:01;;;;;;;15.00;6.53;;;21.90;64.50;;;;;;4998787;28;20034;-72
2022/10/21 08:05:26;;;;;;;12.02;6.18;;;21.90;64.30;;;;;;4993194;28;20038;-72
2022/10/21 08:07:52;;;;;;;10.90;5.18;;;21.90;64.30;;;;;;5007092;28;20033;-72
2022/10/21 08:10:18;;;;;;;15.50;6.50;;;21.90;64.20;;;;;;4978370;28;20497;-74
2022/10/21 08:12:44;;;;;;;14.32;6.90;;;21.90;62.70;;;;;;4987493;28;20026;-74
2022/10/21 08:15:10;;;;;;;15.88;6.78;;;21.60;57.80;;;;;;5011733;28;20033;-74
2022/10/21 08:17:35;;;;;;;13.05;6.88;;;21.40;56.20;;;;;;5001255;28;20398;-72
2022/10/21 08:20:02;;;;;;;14.10;6.32;;;21.30;56.90;;;;;;4999893;28;20041;-72
2022/10/21 08:22:28;;;;;;;12.93;6.57;;;21.40;57.20;;;;;;5003361;28;20031;-72
2022/10/21 08:24:54;;;;;;;13.38;6.25;;;21.50;59.30;;;;;;5006059;28;20030;-72
2022/10/21 08:27:20;;;;;;;16.90;5.72;;;21.70;59.50;;;;;;4993510;28;20076;-73
2022/10/21 08:29:47;;;;;;;21.70;6.97;;;21.70;59.80;;;;;;5003395;28;20030;-72
2022/10/21 08:32:12;;;;;;;13.63;6.40;;;21.80;60.40;;;;;;5006851;28;20023;-75
2022/10/21 08:34:38;;;;;;;18.83;6.93;;;21.80;59.70;;;;;;5022891;28;20029;-74
2022/10/21 08:37:04;;;;;;;15.82;6.38;;;21.90;60.40;;;;;;5009734;28;20030;-74
2022/10/21 08:39:30;;;;;;;12.35;6.20;;;21.90;60.20;;;;;;5020284;28;20034;-74
2022/10/21 08:42:05;;;;;;;24.65;14.68;;;21.90;61.40;;;;;;5007891;28;20025;-74
2022/10/21 08:44:45;;;;;;;30.50;19.38;;;21.80;58.20;;;;;;4995846;28;20030;-74
2022/10/21 08:47:21;;;;;;;25.35;17.73;;;21.60;55.90;;;;;;5013333;28;20103;-74
2022/10/21 08:49:47;;;;;;;23.90;17.83;;;21.50;56.40;;;;;;5021778;28;20076;-73
2022/10/21 08:52:18;;;;;;;24.30;16.10;;;21.50;56.50;;;;;;4997009;28;20022;-73
2022/10/21 08:54:58;;;;;;;26.73;15.65;;;21.50;57.50;;;;;;4987636;28;20025;-73
2022/10/21 08:57:24;;;;;;;21.90;13.98;;;21.60;57.60;;;;;;4990693;28;20037;-73
2022/10/21 08:59:50;;;;;;;21.98;14.18;;;21.70;58.00;;;;;;5023430;28;20030;-73
2022/10/21 09:02:51;;;;;;;26.23;13.05;;;21.80;58.60;;;;;;4997913;28;20582;-73
2022/10/21 09:05:52;;;;;;;27.02;13.30;;;21.80;58.80;;;;;;4911669;29;20028;-73
2022/10/21 09:08:32;;;;;;;20.17;12.45;;;21.80;59.50;;;;;;5002653;28;20037;-75
2022/10/21 09:11:18;;;;;;;22.23;11.57;;;21.80;59.90;;;;;;5020006;28;20029;-72
2022/10/21 09:14:14;;;;;;;18.75;12.63;;;21.90;59.80;;;;;;5008045;28;20029;-74
2022/10/21 09:17:04;;;;;;;26.70;20.65;;;21.80;59.30;;;;;;4994483;28;20399;-74
2022/10/21 09:19:44;;;;;;;27.38;14.85;;;21.70;56.70;;;;;;5002268;28;20023;-74
2022/10/21 09:22:39;;;;;;;19.25;10.80;;;21.60;56.20;;;;;;4997225;28;20105;-73
2022/10/21 09:25:17;;;;;;;30.95;10.63;;;21.50;55.90;;;;;;5004656;28;20034;-74
2022/10/21 09:27:43;;;;;;;22.02;9.70;;;21.60;56.30;;;;;;5007194;28;20623;-72
2022/10/21 09:30:23;;;;;;;19.27;10.13;;;21.60;56.80;;;;;;5000352;28;20104;-73
2022/10/21 09:32:54;;;;;;;21.25;10.20;;;21.70;57.00;;;;;;5006532;28;20033;-72
2022/10/21 09:35:53;;;;;;;30.45;10.07;;;21.70;57.50;;;;;;5020248;28;20030;-72
2022/10/21 09:38:26;;;;;;;24.55;9.70;;;21.80;57.60;;;;;;4989388;28;20480;-73
2022/10/21 09:43:55;;;;;;;18.92;9.52;;;21.80;58.00;;;;;;5050811;23;20052;-72
2022/10/21 09:46:21;;;;;;;21.67;12.55;;;21.80;58.00;;;;;;4930408;29;20027;-72
2022/10/21 09:48:52;;;;;;;22.65;13.98;;;21.80;58.10;;;;;;4923600;28;20040;-70
2022/10/21 09:51:28;;;;;;;24.08;12.85;;;21.80;58.20;;;;;;4931818;29;20027;-69
2022/10/21 09:54:15;;;;;;;17.08;10.95;;;21.80;58.40;;;;;;4931229;29;20453;-70
2022/10/21 09:57:13;;;;;;;20.65;10.50;;;21.80;59.10;;;;;;4944624;23;20047;-70
2022/10/21 09:59:59;;;;;;;16.58;9.80;;;21.80;58.70;;;;;;4929240;29;20050;-72
2022/10/21 10:02:51;;;;;;;18.95;10.23;;;21.80;58.80;;;;;;4929941;29;20035;-72
2022/10/21 10:05:56;;;;;;;18.95;10.20;;;21.80;59.00;;;;;;4928121;29;20051;-72
2022/10/21 10:08:46;;;;;;;21.13;9.85;;;21.80;59.10;;;;;;4912870;29;20031;-72
2022/10/21 10:11:16;;;;;;;21.60;10.30;;;21.80;59.20;;;;;;4933074;29;20043;-72
2022/10/21 10:13:48;;;;;;;18.75;9.43;;;21.80;59.40;;;;;;4921747;29;20048;-72
2022/10/21 10:16:21;;;;;;;16.27;10.18;;;21.90;59.40;;;;;;4916444;29;20095;-72
2022/10/21 10:18:49;;;;;;;19.60;9.35;;;21.80;59.40;;;;;;4916239;29;20520;-71
2022/10/21 10:21:20;;;;;;;20.48;9.90;;;21.80;59.60;;;;;;4913504;29;20529;-72
2022/10/21 10:23:54;;;;;;;26.30;11.20;;;21.90;60.20;;;;;;4898893;29;20036;-72
2022/10/21 10:26:32;;;;;;;19.80;10.10;;;21.90;59.70;;;;;;4914485;29;20044;-72
2022/10/21 10:29:26;;;;;;;19.33;10.25;;;21.90;60.00;;;;;;4915922;29;20043;-72
2022/10/21 10:31:56;;;;;;;16.83;9.23;;;21.80;60.10;;;;;;4915828;29;20486;-71
2022/10/21 10:34:41;;;;;;;15.85;9.55;;;21.90;60.20;;;;;;4915961;29;20035;-71
2022/10/21 10:37:22;;;;;;;20.40;9.70;;;21.90;60.30;;;;;;4915474;29;20409;-71
2022/10/21 10:39:53;;;;;;;17.02;9.60;;;21.80;60.30;;;;;;4915642;29;20042;-72
2022/10/21 10:42:23;;;;;;;17.17;9.18;;;21.80;60.30;;;;;;4915602;29;20107;-72
2022/10/21 10:44:56;;;;;;;21.92;9.20;;;21.90;60.30;;;;;;4915709;29;20035;-71
2022/10/21 10:47:36;;;;;;;15.63;9.05;;;21.90;60.00;;;;;;4914681;29;20036;-72
2022/10/21 10:50:03;;;;;;;19.63;9.27;;;21.90;60.30;;;;;;4913138;29;20075;-71
2022/10/21 10:52:28;;;;;;;23.27;8.98;;;21.90;60.50;;;;;;4913183;29;20079;-72
2022/10/21 10:55:15;;;;;;;20.02;9.63;;;22.00;61.10;;;;;;4915399;29;20027;-72
2022/10/21 10:57:45;;;;;;;16.02;9.38;;;22.00;61.30;;;;;;4913923;29;20554;-72
2022/10/21 11:00:18;;;;;;;19.33;8.82;;;22.00;60.50;;;;;;4898890;29;20083;-71
2022/10/21 11:02:59;;;;;;;16.60;9.07;;;22.00;61.00;;;;;;4915394;29;20054;-71
2022/10/21 11:05:35;;;;;;;18.48;9.00;;;22.00;61.00;;;;;;4914592;29;20043;-71
2022/10/21 11:08:16;;;;;;;17.58;9.35;;;22.00;61.10;;;;;;4915845;29;20024;-71
2022/10/21 11:10:46;;;;;;;18.50;9.27;;;22.00;61.10;;;;;;4915446;29;20364;-71
2022/10/21 11:13:16;;;;;;;17.70;9.15;;;22.00;61.00;;;;;;4915175;29;20486;-71
2022/10/21 11:16:12;;;;;;;16.77;9.38;;;22.00;61.30;;;;;;4915578;29;20439;-71
2022/10/21 11:18:58;;;;;;;13.48;8.40;;;22.00;61.20;;;;;;4914078;29;20039;-70
2022/10/21 11:21:47;;;;;;;18.60;9.15;;;22.00;61.30;;;;;;4915041;29;20051;-71
2022/10/21 11:24:38;;;;;;;13.50;8.60;;;21.90;61.30;;;;;;4915556;29;20035;-71
2022/10/21 11:27:32;;;;;;;13.38;8.27;;;21.90;61.20;;;;;;4913964;29;20104;-71
2022/10/21 11:30:19;;;;;;;14.10;8.27;;;21.90;61.20;;;;;;4923227;29;20031;-72
2022/10/21 11:33:19;;;;;;;14.35;8.27;;;21.90;61.30;;;;;;4898021;29;20035;-71
2022/10/21 11:35:58;;;;;;;18.48;8.10;;;21.90;61.80;;;;;;4898492;29;20040;-71
2022/10/21 11:39:01;;;;;;;15.30;8.48;;;21.90;61.30;;;;;;4913986;29;20024;-72
2022/10/21 11:41:30;;;;;;;14.57;8.43;;;21.90;61.30;;;;;;4914867;29;20087;-72
2022/10/21 11:43:55;;;;;;;13.10;8.50;;;21.90;61.40;;;;;;4914112;29;20091;-71
2022/10/21 11:47:07;;;;;;;16.40;9.00;;;21.90;61.40;;;;;;4914688;29;20450;-72
2022/10/21 11:49:42;;;;;;;16.85;8.45;;;21.90;61.50;;;;;;4914984;29;20029;-72
2022/10/21 11:52:13;;;;;;;11.70;7.40;;;21.90;61.60;;;;;;4914635;29;20107;-72
2022/10/21 11:55:02;;;;;;;14.82;7.97;;;21.90;61.60;;;;;;4913184;29;20039;-72
2022/10/21 11:57:42;;;;;;;13.38;7.95;;;21.90;61.60;;;;;;4913408;29;20154;-71
2022/10/21 12:00:26;;;;;;;12.90;8.40;;;21.90;61.60;;;;;;4914818;29;20032;-72
2022/10/21 12:03:17;;;;;;;13.30;7.63;;;21.90;61.60;;;;;;4913489;29;20138;-72
2022/10/21 12:06:03;;;;;;;18.80;8.50;;;22.00;61.60;;;;;;4914698;29;20029;-72
2022/10/21 12:08:54;;;;;;;12.25;8.05;;;21.90;61.60;;;;;;4906426;29;20039;-71
2022/10/21 12:11:33;;;;;;;14.23;8.15;;;21.90;61.60;;;;;;4913425;29;20103;-72
2022/10/21 12:14:17;;;;;;;14.27;7.93;;;21.90;61.60;;;;;;4913897;29;20560;-72
2022/10/21 12:16:45;;;;;;;12.55;7.60;;;22.00;61.70;;;;;;4914307;29;20111;-72
2022/10/21 12:19:12;;;;;;;11.98;7.43;;;21.90;61.60;;;;;;4913489;29;20058;-71
2022/10/21 12:21:43;;;;;;;11.98;7.80;;;21.90;61.70;;;;;;4914737;29;20054;-72
2022/10/21 12:24:35;;;;;;;17.20;8.18;;;21.90;61.70;;;;;;4913784;29;20027;-71
2022/10/21 12:27:33;;;;;;;19.90;8.45;;;21.90;61.70;;;;;;4911230;29;20380;-72
2022/10/21 12:30:23;;;;;;;13.00;7.63;;;21.90;61.90;;;;;;4907614;29;20028;-72
2022/10/21 12:33:33;;;;;;;13.27;7.43;;;21.90;62.00;;;;;;4912291;29;20043;-72
2022/10/21 12:36:20;;;;;;;16.65;7.88;;;21.90;62.10;;;;;;4917509;29;20040;-71
2022/10/21 12:38:52;;;;;;;11.57;7.80;;;21.90;62.30;;;;;;4912747;29;20032;-72
2022/10/21 12:41:25;;;;;;;14.38;7.13;;;21.90;62.40;;;;;;4913799;29;20119;-72
2022/10/21 12:44:00;;;;;;;17.92;8.35;;;22.00;62.50;;;;;;4911878;29;20044;-72
2022/10/21 12:46:41;;;;;;;17.10;8.05;;;22.00;62.40;;;;;;4912709;29;20518;-72
2022/10/21 12:49:32;;;;;;;15.52;8.32;;;22.00;63.00;;;;;;4913704;29;20040;-72
2022/10/21 12:52:21;;;;;;;14.48;8.43;;;22.00;61.90;;;;;;4910698;29;20458;-72
2022/10/21 12:55:01;;;;;;;21.73;8.57;;;22.00;62.80;;;;;;4893367;29;20081;-72
2022/10/21 12:57:37;;;;;;;;;;;22.10;63.30;;;;;;4894987;29;20402;-72
2022/10/21 13:00:21;;;;;;;15.95;8.77;;;22.10;63.40;;;;;;4894591;29;20540;-72
2022/10/21 13:02:56;;;;;;;14.45;9.00;;;22.10;63.20;;;;;;4894562;29;20455;-72
2022/10/21 13:05:37;;;;;;;16.40;8.95;;;22.10;63.30;;;;;;4894433;29;20068;-72